sensor_id;sensor_type;location;lat;lon;timestamp;temperature;humidity
74822;DHT22;63353;48.702;8.884;2024-02-21T00:02:11;3.60;99.90
74822;DHT22;63353;48.702;8.884;2024-02-21T00:04:37;3.70;99.90
74822;DHT22;63353;48.702;8.884;2024-02-21T00:07:04;3.80;99.90
74822;DHT22;63353;48.702;8.884;2024-02-21T00:09:30;3.70;99.90
74822;DHT22;63353;48.702;8.884;2024-02-21T00:11:55;3.70;99.90
74822;DHT22;63353;48.702;8.884;2024-02-21T00:14:21;3.70;99.90
74822;DHT22;63353;48.702;8.884;2024-02-21T00:16:47;3.70;99.90
74822;DHT22;63353;48.702;8.884;2024-02-21T00:19:13;3.70;99.90
74822;DHT22;63353;48.702;8.884;2024-02-21T00:21:40;3.70;99.90
74822;DHT22;63353;48.702;8.884;2024-02-21T00:24:06;3.70;99.90
74822;DHT22;63353;48.702;8.884;2024-02-21T00:26:31;3.70;99.90
74822;DHT22;63353;48.702;8.884;2024-02-21T00:28:57;3.70;99.90
74822;DHT22;63353;48.702;8.884;2024-02-21T00:31:23;3.70;99.90
74822;DHT22;63353;48.702;8.884;2024-02-21T00:33:48;3.60;99.90
74822;DHT22;63353;48.702;8.884;2024-02-21T00:36:14;3.70;99.90
74822;DHT22;63353;48.702;8.884;2024-02-21T00:38:40;3.90;99.90
74822;DHT22;63353;48.702;8.884;2024-02-21T00:41:06;3.70;99.90
74822;DHT22;63353;48.702;8.884;2024-02-21T00:43:32;3.70;99.90
74822;DHT22;63353;48.702;8.884;2024-02-21T00:45:57;3.70;99.90
74822;DHT22;63353;48.702;8.884;2024-02-21T00:48:23;3.70;99.90
74822;DHT22;63353;48.702;8.884;2024-02-21T00:50:49;3.70;99.90
74822;DHT22;63353;48.702;8.884;2024-02-21T00:53:14;3.70;99.90
74822;DHT22;63353;48.702;8.884;2024-02-21T00:55:40;3.80;99.90
74822;DHT22;63353;48.702;8.884;2024-02-21T00:58:06;3.90;99.90
74822;DHT22;63353;48.702;8.884;2024-02-21T01:00:31;4.00;99.90
74822;DHT22;63353;48.702;8.884;2024-02-21T01:02:57;3.90;99.90
74822;DHT22;63353;48.702;8.884;2024-02-21T01:05:23;4.00;99.90
74822;DHT22;63353;48.702;8.884;2024-02-21T01:07:48;4.00;99.90
74822;DHT22;63353;48.702;8.884;2024-02-21T01:10:14;4.00;99.90
74822;DHT22;63353;48.702;8.884;2024-02-21T01:12:40;4.00;99.90
74822;DHT22;63353;48.702;8.884;2024-02-21T01:15:05;4.10;99.90
74822;DHT22;63353;48.702;8.884;2024-02-21T01:17:31;4.10;99.90
74822;DHT22;63353;48.702;8.884;2024-02-21T01:19:57;4.00;99.90
74822;DHT22;63353;48.702;8.884;2024-02-21T01:22:22;4.10;99.90
74822;DHT22;63353;48.702;8.884;2024-02-21T01:24:48;4.20;99.90
74822;DHT22;63353;48.702;8.884;2024-02-21T01:27:13;4.10;99.90
74822;DHT22;63353;48.702;8.884;2024-02-21T01:29:39;4.20;99.90
74822;DHT22;63353;48.702;8.884;2024-02-21T01:32:05;4.20;99.90
74822;DHT22;63353;48.702;8.884;2024-02-21T01:34:31;4.10;99.90
74822;DHT22;63353;48.702;8.884;2024-02-21T01:36:57;4.10;99.90
74822;DHT22;63353;48.702;8.884;2024-02-21T01:39:22;4.00;99.90
74822;DHT22;63353;48.702;8.884;2024-02-21T01:41:48;4.20;99.90
74822;DHT22;63353;48.702;8.884;2024-02-21T01:44:14;4.00;99.90
74822;DHT22;63353;48.702;8.884;2024-02-21T01:46:39;4.10;99.90
74822;DHT22;63353;48.702;8.884;2024-02-21T01:49:05;4.10;99.90
74822;DHT22;63353;48.702;8.884;2024-02-21T01:51:31;4.10;99.90
74822;DHT22;63353;48.702;8.884;2024-02-21T01:53:58;4.00;99.90
74822;DHT22;63353;48.702;8.884;2024-02-21T01:56:23;4.10;99.90
74822;DHT22;63353;48.702;8.884;2024-02-21T01:58:49;4.00;99.90
74822;DHT22;63353;48.702;8.884;2024-02-21T02:01:16;4.00;99.90
74822;DHT22;63353;48.702;8.884;2024-02-21T02:03:43;4.10;99.90
74822;DHT22;63353;48.702;8.884;2024-02-21T02:06:10;3.90;99.90
74822;DHT22;63353;48.702;8.884;2024-02-21T02:08:36;3.90;99.90
74822;DHT22;63353;48.702;8.884;2024-02-21T02:11:02;3.90;99.90
74822;DHT22;63353;48.702;8.884;2024-02-21T02:13:28;3.80;99.90
74822;DHT22;63353;48.702;8.884;2024-02-21T02:15:54;4.00;99.90
74822;DHT22;63353;48.702;8.884;2024-02-21T02:18:20;3.90;99.90
74822;DHT22;63353;48.702;8.884;2024-02-21T02:20:47;3.90;99.90
74822;DHT22;63353;48.702;8.884;2024-02-21T02:23:30;3.90;99.90
74822;DHT22;63353;48.702;8.884;2024-02-21T02:25:57;4.00;99.90
74822;DHT22;63353;48.702;8.884;2024-02-21T02:28:23;3.90;99.90
74822;DHT22;63353;48.702;8.884;2024-02-21T02:30:49;4.00;99.90
74822;DHT22;63353;48.702;8.884;2024-02-21T02:33:15;3.90;99.90
74822;DHT22;63353;48.702;8.884;2024-02-21T02:35:43;4.00;99.90
74822;DHT22;63353;48.702;8.884;2024-02-21T02:38:09;4.10;99.90
74822;DHT22;63353;48.702;8.884;2024-02-21T02:40:35;4.00;99.90
74822;DHT22;63353;48.702;8.884;2024-02-21T02:43:01;4.00;99.90
74822;DHT22;63353;48.702;8.884;2024-02-21T02:45:26;4.00;99.90
74822;DHT22;63353;48.702;8.884;2024-02-21T02:47:53;4.20;99.90
74822;DHT22;63353;48.702;8.884;2024-02-21T02:50:26;4.10;99.90
74822;DHT22;63353;48.702;8.884;2024-02-21T02:52:52;4.20;99.90
74822;DHT22;63353;48.702;8.884;2024-02-21T02:55:18;4.30;99.90
74822;DHT22;63353;48.702;8.884;2024-02-21T02:57:43;4.40;99.90
74822;DHT22;63353;48.702;8.884;2024-02-21T03:00:13;4.40;99.90
74822;DHT22;63353;48.702;8.884;2024-02-21T03:02:41;4.50;99.90
74822;DHT22;63353;48.702;8.884;2024-02-21T03:05:18;4.50;99.90
74822;DHT22;63353;48.702;8.884;2024-02-21T03:07:44;4.40;99.90
74822;DHT22;63353;48.702;8.884;2024-02-21T03:10:11;4.50;99.90
74822;DHT22;63353;48.702;8.884;2024-02-21T03:12:37;4.50;99.90
74822;DHT22;63353;48.702;8.884;2024-02-21T03:15:04;4.50;99.90
74822;DHT22;63353;48.702;8.884;2024-02-21T03:17:30;4.50;99.90
74822;DHT22;63353;48.702;8.884;2024-02-21T03:19:57;4.50;99.90
74822;DHT22;63353;48.702;8.884;2024-02-21T03:22:22;4.50;99.90
74822;DHT22;63353;48.702;8.884;2024-02-21T03:24:48;4.50;99.90
74822;DHT22;63353;48.702;8.884;2024-02-21T03:27:14;4.60;99.90
74822;DHT22;63353;48.702;8.884;2024-02-21T03:29:40;4.50;99.90
74822;DHT22;63353;48.702;8.884;2024-02-21T03:32:06;4.60;99.90
74822;DHT22;63353;48.702;8.884;2024-02-21T03:34:31;4.50;99.90
74822;DHT22;63353;48.702;8.884;2024-02-21T03:36:57;4.50;99.90
74822;DHT22;63353;48.702;8.884;2024-02-21T03:39:23;4.50;99.90
74822;DHT22;63353;48.702;8.884;2024-02-21T03:41:48;4.50;99.90
74822;DHT22;63353;48.702;8.884;2024-02-21T03:44:14;4.40;99.90
74822;DHT22;63353;48.702;8.884;2024-02-21T03:46:39;4.40;99.90
74822;DHT22;63353;48.702;8.884;2024-02-21T03:49:05;4.40;99.90
74822;DHT22;63353;48.702;8.884;2024-02-21T03:51:31;4.40;99.90
74822;DHT22;63353;48.702;8.884;2024-02-21T03:53:56;4.30;99.90
74822;DHT22;63353;48.702;8.884;2024-02-21T03:56:22;4.30;99.90
74822;DHT22;63353;48.702;8.884;2024-02-21T03:58:47;4.30;99.90
74822;DHT22;63353;48.702;8.884;2024-02-21T04:01:15;4.20;99.90
74822;DHT22;63353;48.702;8.884;2024-02-21T04:03:41;4.30;99.90
74822;DHT22;63353;48.702;8.884;2024-02-21T04:06:07;4.10;99.90
74822;DHT22;63353;48.702;8.884;2024-02-21T04:08:33;4.00;99.90
74822;DHT22;63353;48.702;8.884;2024-02-21T04:10:59;4.00;99.90
74822;DHT22;63353;48.702;8.884;2024-02-21T04:13:24;4.00;99.90
74822;DHT22;63353;48.702;8.884;2024-02-21T04:15:51;4.10;99.90
74822;DHT22;63353;48.702;8.884;2024-02-21T04:18:16;4.20;99.90
74822;DHT22;63353;48.702;8.884;2024-02-21T04:20:42;4.00;99.90
74822;DHT22;63353;48.702;8.884;2024-02-21T04:23:08;4.10;99.90
74822;DHT22;63353;48.702;8.884;2024-02-21T04:25:33;3.90;99.90
74822;DHT22;63353;48.702;8.884;2024-02-21T04:27:59;3.90;99.90
74822;DHT22;63353;48.702;8.884;2024-02-21T04:30:25;3.90;99.90
74822;DHT22;63353;48.702;8.884;2024-02-21T04:32:50;4.00;99.90
74822;DHT22;63353;48.702;8.884;2024-02-21T04:35:16;4.00;99.90
74822;DHT22;63353;48.702;8.884;2024-02-21T04:37:42;3.90;99.90
74822;DHT22;63353;48.702;8.884;2024-02-21T04:40:08;4.00;99.90
74822;DHT22;63353;48.702;8.884;2024-02-21T04:42:34;3.90;99.90
74822;DHT22;63353;48.702;8.884;2024-02-21T04:45:00;3.90;99.90
74822;DHT22;63353;48.702;8.884;2024-02-21T04:47:26;3.80;99.90
74822;DHT22;63353;48.702;8.884;2024-02-21T04:49:52;3.80;99.90
74822;DHT22;63353;48.702;8.884;2024-02-21T04:52:17;3.80;99.90
74822;DHT22;63353;48.702;8.884;2024-02-21T04:54:43;3.90;99.90
74822;DHT22;63353;48.702;8.884;2024-02-21T04:57:08;3.80;99.90
74822;DHT22;63353;48.702;8.884;2024-02-21T04:59:36;3.70;99.90
74822;DHT22;63353;48.702;8.884;2024-02-21T05:02:02;3.60;99.90
74822;DHT22;63353;48.702;8.884;2024-02-21T05:04:27;3.60;99.90
74822;DHT22;63353;48.702;8.884;2024-02-21T05:06:53;3.60;99.90
74822;DHT22;63353;48.702;8.884;2024-02-21T05:09:20;3.60;99.90
74822;DHT22;63353;48.702;8.884;2024-02-21T05:11:45;3.70;99.90
74822;DHT22;63353;48.702;8.884;2024-02-21T05:14:11;3.60;99.90
74822;DHT22;63353;48.702;8.884;2024-02-21T05:16:38;3.60;99.90
74822;DHT22;63353;48.702;8.884;2024-02-21T05:19:05;3.70;99.90
74822;DHT22;63353;48.702;8.884;2024-02-21T05:21:30;3.70;99.90
74822;DHT22;63353;48.702;8.884;2024-02-21T05:23:56;3.60;99.90
74822;DHT22;63353;48.702;8.884;2024-02-21T05:26:25;3.60;99.90
74822;DHT22;63353;48.702;8.884;2024-02-21T05:28:51;3.80;99.90
74822;DHT22;63353;48.702;8.884;2024-02-21T05:31:18;3.60;99.90
74822;DHT22;63353;48.702;8.884;2024-02-21T05:33:44;3.50;99.90
74822;DHT22;63353;48.702;8.884;2024-02-21T05:36:11;3.30;99.90
74822;DHT22;63353;48.702;8.884;2024-02-21T05:38:37;3.30;99.90
74822;DHT22;63353;48.702;8.884;2024-02-21T05:41:03;3.20;99.90
74822;DHT22;63353;48.702;8.884;2024-02-21T05:43:29;3.30;99.90
74822;DHT22;63353;48.702;8.884;2024-02-21T05:45:55;3.40;99.90
74822;DHT22;63353;48.702;8.884;2024-02-21T05:48:21;3.40;99.90
74822;DHT22;63353;48.702;8.884;2024-02-21T05:50:47;3.50;99.90
74822;DHT22;63353;48.702;8.884;2024-02-21T05:53:12;3.50;99.90
74822;DHT22;63353;48.702;8.884;2024-02-21T05:55:39;3.40;99.90
74822;DHT22;63353;48.702;8.884;2024-02-21T05:58:05;3.40;99.90
74822;DHT22;63353;48.702;8.884;2024-02-21T06:00:31;3.30;99.90
74822;DHT22;63353;48.702;8.884;2024-02-21T06:02:57;3.40;99.90
74822;DHT22;63353;48.702;8.884;2024-02-21T06:05:23;3.40;99.90
74822;DHT22;63353;48.702;8.884;2024-02-21T06:07:49;3.40;99.90
74822;DHT22;63353;48.702;8.884;2024-02-21T06:10:15;3.40;99.90
74822;DHT22;63353;48.702;8.884;2024-02-21T06:12:40;3.40;99.90
74822;DHT22;63353;48.702;8.884;2024-02-21T06:15:06;3.50;99.90
74822;DHT22;63353;48.702;8.884;2024-02-21T06:17:32;3.50;99.90
74822;DHT22;63353;48.702;8.884;2024-02-21T06:19:58;3.50;99.90
74822;DHT22;63353;48.702;8.884;2024-02-21T06:22:23;3.60;99.90
74822;DHT22;63353;48.702;8.884;2024-02-21T06:24:49;3.60;99.90
74822;DHT22;63353;48.702;8.884;2024-02-21T06:27:15;3.60;99.90
74822;DHT22;63353;48.702;8.884;2024-02-21T06:29:42;3.50;99.90
74822;DHT22;63353;48.702;8.884;2024-02-21T06:32:07;3.60;99.90
74822;DHT22;63353;48.702;8.884;2024-02-21T06:34:33;3.50;99.90
74822;DHT22;63353;48.702;8.884;2024-02-21T06:36:59;3.50;99.90
74822;DHT22;63353;48.702;8.884;2024-02-21T06:39:24;3.50;99.90
74822;DHT22;63353;48.702;8.884;2024-02-21T06:41:50;3.40;99.90
74822;DHT22;63353;48.702;8.884;2024-02-21T06:44:17;3.40;99.90
74822;DHT22;63353;48.702;8.884;2024-02-21T06:46:43;3.50;99.90
74822;DHT22;63353;48.702;8.884;2024-02-21T06:49:09;3.50;99.90
74822;DHT22;63353;48.702;8.884;2024-02-21T06:51:34;3.60;99.90
74822;DHT22;63353;48.702;8.884;2024-02-21T06:54:00;3.70;99.90
74822;DHT22;63353;48.702;8.884;2024-02-21T06:56:26;3.70;99.90
74822;DHT22;63353;48.702;8.884;2024-02-21T06:58:57;3.80;99.90
74822;DHT22;63353;48.702;8.884;2024-02-21T07:01:23;3.90;99.90
74822;DHT22;63353;48.702;8.884;2024-02-21T07:03:49;3.90;99.90
74822;DHT22;63353;48.702;8.884;2024-02-21T07:06:15;3.80;99.90
74822;DHT22;63353;48.702;8.884;2024-02-21T07:08:41;3.90;99.90
74822;DHT22;63353;48.702;8.884;2024-02-21T07:11:07;4.00;99.90
74822;DHT22;63353;48.702;8.884;2024-02-21T07:13:33;3.90;99.90
74822;DHT22;63353;48.702;8.884;2024-02-21T07:15:58;3.90;99.90
74822;DHT22;63353;48.702;8.884;2024-02-21T07:18:24;3.90;99.90
74822;DHT22;63353;48.702;8.884;2024-02-21T07:20:52;4.00;99.90
74822;DHT22;63353;48.702;8.884;2024-02-21T07:23:18;4.00;99.90
74822;DHT22;63353;48.702;8.884;2024-02-21T07:25:44;4.10;99.90
74822;DHT22;63353;48.702;8.884;2024-02-21T07:28:10;4.20;99.90
74822;DHT22;63353;48.702;8.884;2024-02-21T07:30:36;4.20;99.90
74822;DHT22;63353;48.702;8.884;2024-02-21T07:33:02;4.40;99.90
74822;DHT22;63353;48.702;8.884;2024-02-21T07:35:28;4.40;99.90
74822;DHT22;63353;48.702;8.884;2024-02-21T07:37:53;4.60;99.90
74822;DHT22;63353;48.702;8.884;2024-02-21T07:40:19;4.70;99.90
74822;DHT22;63353;48.702;8.884;2024-02-21T07:42:45;4.80;99.90
74822;DHT22;63353;48.702;8.884;2024-02-21T07:45:11;4.90;99.90
74822;DHT22;63353;48.702;8.884;2024-02-21T07:47:37;5.00;99.90
74822;DHT22;63353;48.702;8.884;2024-02-21T07:50:03;5.00;99.90
74822;DHT22;63353;48.702;8.884;2024-02-21T07:52:29;5.10;99.90
74822;DHT22;63353;48.702;8.884;2024-02-21T07:54:55;5.20;99.90
74822;DHT22;63353;48.702;8.884;2024-02-21T07:57:21;5.20;99.90
74822;DHT22;63353;48.702;8.884;2024-02-21T07:59:47;5.20;99.90
74822;DHT22;63353;48.702;8.884;2024-02-21T08:02:16;5.30;99.90
74822;DHT22;63353;48.702;8.884;2024-02-21T08:04:42;5.40;99.90
74822;DHT22;63353;48.702;8.884;2024-02-21T08:07:08;5.50;99.90
74822;DHT22;63353;48.702;8.884;2024-02-21T08:09:34;5.50;99.90
74822;DHT22;63353;48.702;8.884;2024-02-21T08:12:00;5.70;99.90
74822;DHT22;63353;48.702;8.884;2024-02-21T08:14:26;5.80;99.90
74822;DHT22;63353;48.702;8.884;2024-02-21T08:16:52;5.80;99.90
74822;DHT22;63353;48.702;8.884;2024-02-21T08:19:21;5.80;99.90
74822;DHT22;63353;48.702;8.884;2024-02-21T08:21:48;5.90;99.90
74822;DHT22;63353;48.702;8.884;2024-02-21T08:24:14;6.10;99.90
74822;DHT22;63353;48.702;8.884;2024-02-21T08:26:45;6.20;99.90
74822;DHT22;63353;48.702;8.884;2024-02-21T08:29:14;6.40;99.90
74822;DHT22;63353;48.702;8.884;2024-02-21T08:31:40;6.60;99.90
74822;DHT22;63353;48.702;8.884;2024-02-21T08:34:05;6.70;99.90
74822;DHT22;63353;48.702;8.884;2024-02-21T08:36:35;6.90;99.90
74822;DHT22;63353;48.702;8.884;2024-02-21T08:39:02;6.90;99.90
74822;DHT22;63353;48.702;8.884;2024-02-21T08:41:33;7.00;99.90
74822;DHT22;63353;48.702;8.884;2024-02-21T08:43:59;7.10;99.90
74822;DHT22;63353;48.702;8.884;2024-02-21T08:46:25;7.10;99.90
74822;DHT22;63353;48.702;8.884;2024-02-21T08:48:52;7.00;99.90
74822;DHT22;63353;48.702;8.884;2024-02-21T08:51:18;7.00;99.90
74822;DHT22;63353;48.702;8.884;2024-02-21T08:53:44;6.90;99.90
74822;DHT22;63353;48.702;8.884;2024-02-21T08:56:10;7.00;99.90
74822;DHT22;63353;48.702;8.884;2024-02-21T08:58:37;7.00;99.90
74822;DHT22;63353;48.702;8.884;2024-02-21T09:01:03;7.00;99.90
74822;DHT22;63353;48.702;8.884;2024-02-21T09:03:36;7.00;99.90
74822;DHT22;63353;48.702;8.884;2024-02-21T09:06:02;7.10;99.90
74822;DHT22;63353;48.702;8.884;2024-02-21T09:08:28;7.30;99.90
74822;DHT22;63353;48.702;8.884;2024-02-21T09:10:54;7.30;99.90
74822;DHT22;63353;48.702;8.884;2024-02-21T09:13:20;7.40;99.90
74822;DHT22;63353;48.702;8.884;2024-02-21T09:15:46;7.50;99.90
74822;DHT22;63353;48.702;8.884;2024-02-21T09:18:12;7.70;99.90
74822;DHT22;63353;48.702;8.884;2024-02-21T09:20:38;7.70;99.90
74822;DHT22;63353;48.702;8.884;2024-02-21T09:23:03;7.70;99.90
74822;DHT22;63353;48.702;8.884;2024-02-21T09:25:29;7.70;99.90
74822;DHT22;63353;48.702;8.884;2024-02-21T09:27:55;7.90;99.90
74822;DHT22;63353;48.702;8.884;2024-02-21T09:30:23;8.10;99.90
74822;DHT22;63353;48.702;8.884;2024-02-21T09:32:49;8.10;99.90
74822;DHT22;63353;48.702;8.884;2024-02-21T09:35:15;8.20;99.90
74822;DHT22;63353;48.702;8.884;2024-02-21T09:37:41;8.40;99.90
74822;DHT22;63353;48.702;8.884;2024-02-21T09:40:07;8.60;99.90
74822;DHT22;63353;48.702;8.884;2024-02-21T09:42:40;8.60;99.90
74822;DHT22;63353;48.702;8.884;2024-02-21T09:45:22;8.90;99.90
74822;DHT22;63353;48.702;8.884;2024-02-21T09:50:45;9.20;99.90
74822;DHT22;63353;48.702;8.884;2024-02-21T09:53:13;9.50;99.90
74822;DHT22;63353;48.702;8.884;2024-02-21T09:55:40;9.70;99.90
74822;DHT22;63353;48.702;8.884;2024-02-21T09:58:07;9.80;99.90
74822;DHT22;63353;48.702;8.884;2024-02-21T10:00:35;9.80;99.90
74822;DHT22;63353;48.702;8.884;2024-02-21T10:03:01;9.90;99.90
74822;DHT22;63353;48.702;8.884;2024-02-21T10:05:30;9.90;99.90
74822;DHT22;63353;48.702;8.884;2024-02-21T10:07:56;10.00;99.90
74822;DHT22;63353;48.702;8.884;2024-02-21T10:10:22;10.10;99.90
74822;DHT22;63353;48.702;8.884;2024-02-21T10:12:49;10.20;99.90
74822;DHT22;63353;48.702;8.884;2024-02-21T10:15:20;10.20;99.90
74822;DHT22;63353;48.702;8.884;2024-02-21T10:17:47;10.10;99.90
74822;DHT22;63353;48.702;8.884;2024-02-21T10:20:13;10.30;99.90
74822;DHT22;63353;48.702;8.884;2024-02-21T10:22:39;10.30;99.90
74822;DHT22;63353;48.702;8.884;2024-02-21T10:25:09;9.90;99.90
74822;DHT22;63353;48.702;8.884;2024-02-21T10:27:36;9.90;99.90
74822;DHT22;63353;48.702;8.884;2024-02-21T10:30:02;10.10;99.90
74822;DHT22;63353;48.702;8.884;2024-02-21T10:32:28;10.10;99.90
74822;DHT22;63353;48.702;8.884;2024-02-21T10:35:05;9.70;99.90
74822;DHT22;63353;48.702;8.884;2024-02-21T10:37:30;10.00;99.90
74822;DHT22;63353;48.702;8.884;2024-02-21T10:39:57;10.20;99.90
74822;DHT22;63353;48.702;8.884;2024-02-21T10:42:23;10.50;99.90
74822;DHT22;63353;48.702;8.884;2024-02-21T10:44:51;10.80;99.90
74822;DHT22;63353;48.702;8.884;2024-02-21T10:47:19;10.60;99.90
74822;DHT22;63353;48.702;8.884;2024-02-21T10:49:54;10.30;99.90
74822;DHT22;63353;48.702;8.884;2024-02-21T10:52:39;10.40;99.90
74822;DHT22;63353;48.702;8.884;2024-02-21T10:55:10;10.60;99.90
74822;DHT22;63353;48.702;8.884;2024-02-21T10:57:38;10.80;99.90
74822;DHT22;63353;48.702;8.884;2024-02-21T11:00:05;11.00;99.90
74822;DHT22;63353;48.702;8.884;2024-02-21T11:02:34;11.10;99.90
74822;DHT22;63353;48.702;8.884;2024-02-21T11:05:01;11.20;99.90
74822;DHT22;63353;48.702;8.884;2024-02-21T11:07:29;11.50;99.90
74822;DHT22;63353;48.702;8.884;2024-02-21T11:09:57;11.50;99.90
74822;DHT22;63353;48.702;8.884;2024-02-21T11:12:25;11.60;99.90
74822;DHT22;63353;48.702;8.884;2024-02-21T11:14:52;11.20;99.90
74822;DHT22;63353;48.702;8.884;2024-02-21T11:17:19;11.20;99.90
74822;DHT22;63353;48.702;8.884;2024-02-21T11:19:48;11.20;99.90
74822;DHT22;63353;48.702;8.884;2024-02-21T11:22:20;11.10;99.90
74822;DHT22;63353;48.702;8.884;2024-02-21T11:24:48;11.20;99.90
74822;DHT22;63353;48.702;8.884;2024-02-21T11:27:21;11.30;99.90
74822;DHT22;63353;48.702;8.884;2024-02-21T11:29:55;11.10;99.90
74822;DHT22;63353;48.702;8.884;2024-02-21T11:32:21;10.60;99.90
74822;DHT22;63353;48.702;8.884;2024-02-21T11:35:19;11.00;99.90
74822;DHT22;63353;48.702;8.884;2024-02-21T11:37:44;11.40;99.90
74822;DHT22;63353;48.702;8.884;2024-02-21T11:40:12;11.60;99.90
74822;DHT22;63353;48.702;8.884;2024-02-21T11:42:38;11.70;99.90
74822;DHT22;63353;48.702;8.884;2024-02-21T11:45:04;11.90;99.90
74822;DHT22;63353;48.702;8.884;2024-02-21T11:47:30;11.80;99.90
74822;DHT22;63353;48.702;8.884;2024-02-21T11:49:56;11.70;99.90
74822;DHT22;63353;48.702;8.884;2024-02-21T11:52:22;11.80;99.90
74822;DHT22;63353;48.702;8.884;2024-02-21T11:54:51;12.10;99.90
74822;DHT22;63353;48.702;8.884;2024-02-21T11:57:17;12.50;99.90
74822;DHT22;63353;48.702;8.884;2024-02-21T11:59:44;12.60;99.90
74822;DHT22;63353;48.702;8.884;2024-02-21T12:02:11;12.30;99.90
74822;DHT22;63353;48.702;8.884;2024-02-21T12:04:37;12.10;99.90
74822;DHT22;63353;48.702;8.884;2024-02-21T12:07:03;11.80;99.90
74822;DHT22;63353;48.702;8.884;2024-02-21T12:09:30;12.10;99.90
74822;DHT22;63353;48.702;8.884;2024-02-21T12:12:03;12.20;99.90
74822;DHT22;63353;48.702;8.884;2024-02-21T12:14:31;12.10;99.90
74822;DHT22;63353;48.702;8.884;2024-02-21T12:16:57;12.20;99.90
74822;DHT22;63353;48.702;8.884;2024-02-21T12:19:23;12.00;99.90
74822;DHT22;63353;48.702;8.884;2024-02-21T12:21:49;12.20;99.90
74822;DHT22;63353;48.702;8.884;2024-02-21T12:24:22;11.90;99.90
74822;DHT22;63353;48.702;8.884;2024-02-21T12:26:49;11.90;99.90
74822;DHT22;63353;48.702;8.884;2024-02-21T12:29:15;12.10;99.90
74822;DHT22;63353;48.702;8.884;2024-02-21T12:31:40;12.30;99.90
74822;DHT22;63353;48.702;8.884;2024-02-21T12:34:06;12.40;99.90
74822;DHT22;63353;48.702;8.884;2024-02-21T12:36:32;12.50;99.90
74822;DHT22;63353;48.702;8.884;2024-02-21T12:38:59;12.60;99.90
74822;DHT22;63353;48.702;8.884;2024-02-21T12:41:25;12.50;99.90
74822;DHT22;63353;48.702;8.884;2024-02-21T12:43:52;12.40;99.90
74822;DHT22;63353;48.702;8.884;2024-02-21T12:46:18;12.50;99.90
74822;DHT22;63353;48.702;8.884;2024-02-21T12:48:43;12.50;99.90
74822;DHT22;63353;48.702;8.884;2024-02-21T12:51:09;12.60;99.90
74822;DHT22;63353;48.702;8.884;2024-02-21T12:53:35;12.70;99.90
74822;DHT22;63353;48.702;8.884;2024-02-21T12:56:01;12.50;99.90
74822;DHT22;63353;48.702;8.884;2024-02-21T12:58:26;12.60;99.90
74822;DHT22;63353;48.702;8.884;2024-02-21T13:00:52;12.60;99.90
74822;DHT22;63353;48.702;8.884;2024-02-21T13:03:20;12.70;99.90
74822;DHT22;63353;48.702;8.884;2024-02-21T13:05:46;12.70;99.90
74822;DHT22;63353;48.702;8.884;2024-02-21T13:08:13;12.70;99.90
74822;DHT22;63353;48.702;8.884;2024-02-21T13:10:39;12.40;99.90
74822;DHT22;63353;48.702;8.884;2024-02-21T13:13:05;12.20;99.90
74822;DHT22;63353;48.702;8.884;2024-02-21T13:15:31;12.20;99.90
74822;DHT22;63353;48.702;8.884;2024-02-21T13:17:58;12.30;99.90
74822;DHT22;63353;48.702;8.884;2024-02-21T13:20:25;12.10;99.90
74822;DHT22;63353;48.702;8.884;2024-02-21T13:22:52;12.00;99.90
74822;DHT22;63353;48.702;8.884;2024-02-21T13:25:18;12.00;99.90
74822;DHT22;63353;48.702;8.884;2024-02-21T13:27:46;12.10;99.90
74822;DHT22;63353;48.702;8.884;2024-02-21T13:30:13;12.10;99.90
74822;DHT22;63353;48.702;8.884;2024-02-21T13:32:42;12.00;99.90
74822;DHT22;63353;48.702;8.884;2024-02-21T13:35:08;12.00;99.90
74822;DHT22;63353;48.702;8.884;2024-02-21T13:37:34;11.90;99.90
74822;DHT22;63353;48.702;8.884;2024-02-21T13:40:00;11.90;99.90
74822;DHT22;63353;48.702;8.884;2024-02-21T13:42:26;11.90;99.90
74822;DHT22;63353;48.702;8.884;2024-02-21T13:44:53;12.00;99.90
74822;DHT22;63353;48.702;8.884;2024-02-21T13:47:19;11.90;99.90
74822;DHT22;63353;48.702;8.884;2024-02-21T13:49:46;12.00;99.90
74822;DHT22;63353;48.702;8.884;2024-02-21T13:52:13;12.30;99.90
74822;DHT22;63353;48.702;8.884;2024-02-21T13:54:38;12.20;99.90
74822;DHT22;63353;48.702;8.884;2024-02-21T13:57:04;12.10;99.90
74822;DHT22;63353;48.702;8.884;2024-02-21T13:59:30;12.20;99.90
74822;DHT22;63353;48.702;8.884;2024-02-21T14:01:55;12.30;99.90
74822;DHT22;63353;48.702;8.884;2024-02-21T14:04:21;12.20;99.90
74822;DHT22;63353;48.702;8.884;2024-02-21T14:06:47;12.10;99.90
74822;DHT22;63353;48.702;8.884;2024-02-21T14:09:13;12.00;99.90
74822;DHT22;63353;48.702;8.884;2024-02-21T14:11:39;11.80;99.90
74822;DHT22;63353;48.702;8.884;2024-02-21T14:14:06;11.60;99.90
74822;DHT22;63353;48.702;8.884;2024-02-21T14:16:32;11.60;99.90
74822;DHT22;63353;48.702;8.884;2024-02-21T14:18:58;11.60;99.90
74822;DHT22;63353;48.702;8.884;2024-02-21T14:21:24;11.70;99.90
74822;DHT22;63353;48.702;8.884;2024-02-21T14:23:50;11.60;99.90
74822;DHT22;63353;48.702;8.884;2024-02-21T14:26:16;11.50;99.90
74822;DHT22;63353;48.702;8.884;2024-02-21T14:28:41;11.50;99.90
74822;DHT22;63353;48.702;8.884;2024-02-21T14:31:07;11.60;99.90
74822;DHT22;63353;48.702;8.884;2024-02-21T14:33:36;11.60;99.90
74822;DHT22;63353;48.702;8.884;2024-02-21T14:36:02;11.60;99.90
74822;DHT22;63353;48.702;8.884;2024-02-21T14:38:28;11.60;99.90
74822;DHT22;63353;48.702;8.884;2024-02-21T14:40:54;11.50;99.90
74822;DHT22;63353;48.702;8.884;2024-02-21T14:43:20;11.50;99.90
74822;DHT22;63353;48.702;8.884;2024-02-21T14:45:48;11.40;99.90
74822;DHT22;63353;48.702;8.884;2024-02-21T14:48:14;11.50;99.90
74822;DHT22;63353;48.702;8.884;2024-02-21T14:50:40;11.50;99.90
74822;DHT22;63353;48.702;8.884;2024-02-21T14:53:06;11.50;99.90
74822;DHT22;63353;48.702;8.884;2024-02-21T14:55:33;11.40;99.90
74822;DHT22;63353;48.702;8.884;2024-02-21T14:57:59;11.40;99.90
74822;DHT22;63353;48.702;8.884;2024-02-21T15:00:26;11.30;99.90
74822;DHT22;63353;48.702;8.884;2024-02-21T15:02:56;11.20;99.90
74822;DHT22;63353;48.702;8.884;2024-02-21T15:05:23;11.30;99.90
74822;DHT22;63353;48.702;8.884;2024-02-21T15:07:48;11.30;99.90
74822;DHT22;63353;48.702;8.884;2024-02-21T15:10:14;11.30;99.90
74822;DHT22;63353;48.702;8.884;2024-02-21T15:12:40;11.40;99.90
74822;DHT22;63353;48.702;8.884;2024-02-21T15:15:06;11.50;99.90
74822;DHT22;63353;48.702;8.884;2024-02-21T15:17:34;11.50;99.90
74822;DHT22;63353;48.702;8.884;2024-02-21T15:19:59;11.50;99.90
74822;DHT22;63353;48.702;8.884;2024-02-21T15:22:26;11.50;99.90
74822;DHT22;63353;48.702;8.884;2024-02-21T15:24:52;11.50;99.90
74822;DHT22;63353;48.702;8.884;2024-02-21T15:27:18;11.30;99.90
74822;DHT22;63353;48.702;8.884;2024-02-21T15:29:44;11.30;99.90
74822;DHT22;63353;48.702;8.884;2024-02-21T15:32:10;11.10;99.90
74822;DHT22;63353;48.702;8.884;2024-02-21T15:34:36;11.00;99.90
74822;DHT22;63353;48.702;8.884;2024-02-21T15:37:02;11.10;99.90
74822;DHT22;63353;48.702;8.884;2024-02-21T15:39:29;11.00;99.90